Time;durP1;ratioP1;P1;durP2;ratioP2;P2;SDS_P1;SDS_P2;PMS_P1;PMS_P2;Temp;Humidity;BMP_temperature;BMP_pressure;BME280_temperature;BME280_humidity;BME280_pressure;Samples;Min_cycle;Max_cycle;Signal;HPM_P1;HPM_P2
2022/05/24 00:02:05;;;;;;;1.80;1.38;;;17.60;91.60;;;;;;4993757;28;20541;-68
2022/05/24 00:04:31;;;;;;;2.83;1.90;;;17.60;91.60;;;;;;4994889;28;20034;-68
2022/05/24 00:06:57;;;;;;;4.60;1.65;;;17.50;91.60;;;;;;4994370;28;20038;-68
2022/05/24 00:09:22;;;;;;;4.22;2.35;;;17.50;91.60;;;;;;4993992;28;20382;-68
2022/05/24 00:11:48;;;;;;;2.15;1.40;;;17.50;91.60;;;;;;4994352;28;20028;-68
2022/05/24 00:14:14;;;;;;;3.38;1.88;;;17.40;91.60;;;;;;4994885;28;20096;-68
2022/05/24 00:16:43;;;;;;;1.85;1.42;;;17.40;91.50;;;;;;4993713;28;20080;-68
2022/05/24 00:19:08;;;;;;;6.78;2.88;;;17.30;91.50;;;;;;4994294;28;20030;-68
2022/05/24 00:21:35;;;;;;;4.18;1.75;;;17.30;91.50;;;;;;4994217;28;20613;-68
2022/05/24 00:24:03;;;;;;;2.90;1.90;;;17.30;91.50;;;;;;4993442;28;20060;-68
2022/05/24 00:26:31;;;;;;;1.33;1.05;;;17.20;91.50;;;;;;4988472;28;20478;-68
2022/05/24 00:28:57;;;;;;;4.70;2.63;;;17.20;91.50;;;;;;4993664;28;20038;-68
2022/05/24 00:31:23;;;;;;;1.40;1.20;;;17.30;91.50;;;;;;4989110;28;20030;-68
2022/05/24 00:33:49;;;;;;;3.55;2.25;;;17.20;91.40;;;;;;4989733;28;20038;-69
2022/05/24 00:36:17;;;;;;;1.73;1.23;;;17.30;91.40;;;;;;4993676;28;20053;-68
2022/05/24 00:38:46;;;;;;;4.30;2.55;;;17.20;91.40;;;;;;4993780;28;20034;-68
2022/05/24 00:41:27;;;;;;;2.92;1.38;;;17.20;91.40;;;;;;4993769;28;20541;-68
2022/05/24 00:44:06;;;;;;;3.92;2.22;;;17.30;91.40;;;;;;4983661;28;20057;-68
2022/05/24 00:46:42;;;;;;;2.67;1.85;;;17.20;91.40;;;;;;4992924;28;20057;-68
2022/05/24 00:49:25;;;;;;;4.18;2.30;;;17.20;91.40;;;;;;4993874;28;20076;-68
2022/05/24 00:51:54;;;;;;;;;;;17.20;91.40;;;;;;4993355;28;20525;-68
2022/05/24 00:54:20;;;;;;;2.78;2.15;;;17.20;91.30;;;;;;4994128;28;19925;-68
2022/05/24 00:57:04;;;;;;;4.15;2.22;;;17.10;91.30;;;;;;4993458;28;20376;-68
2022/05/24 00:59:49;;;;;;;15.98;2.53;;;17.10;91.30;;;;;;4988817;28;20035;-68
2022/05/24 01:02:15;;;;;;;4.85;3.03;;;17.10;91.30;;;;;;4980818;28;20053;-68
2022/05/24 01:04:41;;;;;;;2.40;1.80;;;17.10;91.30;;;;;;4993515;28;20030;-68
2022/05/24 01:07:09;;;;;;;4.40;1.90;;;17.00;91.30;;;;;;4992860;28;20035;-68
2022/05/24 01:09:49;;;;;;;6.70;3.10;;;17.00;91.30;;;;;;4993144;28;20057;-68
2022/05/24 01:12:21;;;;;;;3.42;1.92;;;17.00;91.30;;;;;;4993189;28;20096;-68
2022/05/24 01:14:48;;;;;;;2.17;1.30;;;17.10;91.50;;;;;;4993631;28;20417;-68
2022/05/24 01:17:14;;;;;;;7.18;2.80;;;17.10;91.10;;;;;;4993309;28;20077;-68
2022/05/24 01:19:45;;;;;;;6.35;2.80;;;17.00;91.00;;;;;;4992583;28;20405;-69
2022/05/24 01:22:27;;;;;;;4.82;2.10;;;17.10;91.00;;;;;;4993269;28;20150;-68
2022/05/24 01:25:11;;;;;;;3.92;2.80;;;17.10;90.90;;;;;;4993415;28;20038;-68
2022/05/24 01:27:37;;;;;;;7.25;3.00;;;17.10;90.90;;;;;;4982081;28;20027;-68
2022/05/24 01:30:05;;;;;;;5.15;3.28;;;17.10;90.90;;;;;;4993082;28;20682;-68
2022/05/24 01:38:04;;;;;;;3.80;1.90;;;17.10;90.70;;;;;;4983080;28;20027;-68
2022/05/24 01:40:30;;;;;;;2.63;1.45;;;17.10;90.70;;;;;;4992187;28;20069;-69
2022/05/24 01:42:56;;;;;;;1.88;1.45;;;17.10;90.70;;;;;;4993035;28;20030;-68
2022/05/24 01:45:31;;;;;;;2.22;1.63;;;17.10;90.60;;;;;;4992961;28;20053;-69
2022/05/24 01:48:01;;;;;;;1.48;1.00;;;17.00;90.60;;;;;;4992403;28;20026;-68
2022/05/24 01:50:28;;;;;;;3.90;2.15;;;17.00;90.50;;;;;;4993108;28;20031;-68
2022/05/24 01:52:57;;;;;;;5.72;2.75;;;17.00;90.50;;;;;;4992841;28;20050;-68
2022/05/24 01:55:29;;;;;;;3.55;2.53;;;17.00;90.50;;;;;;4992157;28;20069;-68
2022/05/24 01:58:01;;;;;;;4.50;2.55;;;17.00;90.50;;;;;;4992573;28;20504;-68
2022/05/24 02:00:36;;;;;;;2.65;2.00;;;17.00;90.40;;;;;;4992796;28;20081;-68
2022/05/24 02:03:02;;;;;;;5.18;2.13;;;17.00;90.30;;;;;;4988663;28;20030;-69
2022/05/24 02:05:32;;;;;;;3.72;2.33;;;17.00;90.20;;;;;;4992468;28;20030;-68
2022/05/24 02:07:59;;;;;;;6.47;2.67;;;17.00;90.20;;;;;;4992788;28;20030;-68
2022/05/24 02:10:27;;;;;;;4.60;2.40;;;16.90;90.10;;;;;;4993635;28;20052;-68
2022/05/24 02:12:57;;;;;;;5.47;2.58;;;17.00;90.10;;;;;;4996716;28;20061;-68
2022/05/24 02:15:35;;;;;;;8.77;3.40;;;16.90;90.00;;;;;;4996329;28;20483;-68
2022/05/24 02:18:06;;;;;;;6.53;2.25;;;16.90;90.10;;;;;;4996374;28;20042;-68
2022/05/24 02:20:36;;;;;;;4.68;2.58;;;16.90;90.00;;;;;;4996532;28;20113;-68
2022/05/24 02:23:03;;;;;;;1.75;1.10;;;16.90;89.80;;;;;;4995991;28;20058;-69
2022/05/24 02:25:39;;;;;;;4.38;2.28;;;16.90;89.80;;;;;;4996593;28;20073;-68
2022/05/24 02:28:09;;;;;;;7.53;2.28;;;16.80;89.80;;;;;;4996393;28;20041;-69
2022/05/24 02:30:39;;;;;;;2.05;1.65;;;16.80;89.90;;;;;;4995536;28;20049;-68
2022/05/24 02:33:05;;;;;;;7.00;3.45;;;16.80;90.00;;;;;;4996232;28;20097;-68
2022/05/24 02:35:31;;;;;;;4.45;2.78;;;16.70;90.00;;;;;;4990601;28;20110;-68
2022/05/24 02:37:57;;;;;;;2.45;1.05;;;16.70;90.00;;;;;;4995437;28;20109;-68
2022/05/24 02:43:07;;;;;;;6.30;2.25;;;16.70;89.90;;;;;;4995001;28;20081;-68
2022/05/24 02:45:32;;;;;;;5.57;2.45;;;16.70;89.90;;;;;;4995650;28;20054;-68
2022/05/24 02:47:58;;;;;;;3.45;2.55;;;16.70;90.00;;;;;;4996094;28;20367;-68
2022/05/24 02:50:25;;;;;;;1.92;1.55;;;16.70;90.10;;;;;;4996123;28;20114;-68
2022/05/24 02:52:51;;;;;;;7.78;3.80;;;16.60;90.00;;;;;;4995106;28;20101;-71
2022/05/24 02:55:18;;;;;;;4.18;2.70;;;16.60;90.10;;;;;;4994533;28;20034;-68
2022/05/24 02:57:45;;;;;;;4.43;2.35;;;16.60;90.10;;;;;;4994726;28;20049;-68
2022/05/24 03:00:20;;;;;;;9.40;3.47;;;16.60;90.10;;;;;;4994217;28;20113;-69
2022/05/24 03:02:46;;;;;;;5.63;3.38;;;16.70;90.30;;;;;;4994520;28;20125;-69
2022/05/24 03:05:13;;;;;;;7.57;4.03;;;16.70;90.20;;;;;;4994031;28;20472;-68
2022/05/24 03:10:24;;;;;;;6.57;3.50;;;16.70;90.20;;;;;;4994241;28;20482;-68
2022/05/24 03:15:36;;;;;;;6.65;3.63;;;16.70;90.20;;;;;;4995359;28;20548;-69
2022/05/24 03:18:02;;;;;;;7.07;3.42;;;16.70;90.20;;;;;;4995321;28;20466;-69
2022/05/24 03:20:28;;;;;;;5.07;3.45;;;16.70;90.20;;;;;;4994824;28;20030;-69
2022/05/24 03:22:53;;;;;;;9.85;3.97;;;16.70;90.20;;;;;;4993339;28;20474;-69
2022/05/24 03:25:19;;;;;;;5.20;3.08;;;16.70;90.20;;;;;;4994148;28;20026;-68
2022/05/24 03:27:49;;;;;;;6.97;3.33;;;16.70;90.20;;;;;;4993818;28;20061;-69
2022/05/24 03:30:15;;;;;;;8.80;4.47;;;16.80;90.20;;;;;;4993729;28;20076;-68
2022/05/24 03:32:41;;;;;;;7.82;3.80;;;16.80;90.10;;;;;;4994112;28;20037;-69
2022/05/24 03:35:08;;;;;;;8.82;4.07;;;16.80;90.20;;;;;;4993589;28;20030;-68
2022/05/24 03:37:35;;;;;;;6.22;4.25;;;16.80;90.20;;;;;;4994369;28;20077;-68
2022/05/24 03:40:01;;;;;;;5.88;2.65;;;16.80;90.10;;;;;;4993298;28;20030;-68
2022/05/24 03:42:26;;;;;;;10.32;3.20;;;16.80;90.00;;;;;;4994889;28;20088;-68
2022/05/24 03:44:54;;;;;;;8.52;3.42;;;16.80;89.90;;;;;;4995192;28;20026;-68
2022/05/24 03:47:19;;;;;;;8.57;4.80;;;16.80;89.90;;;;;;4994070;28;20629;-68
2022/05/24 03:49:45;;;;;;;8.93;4.70;;;16.80;90.00;;;;;;4991573;28;20040;-68
2022/05/24 03:52:11;;;;;;;12.93;5.53;;;16.80;90.20;;;;;;4993544;28;20030;-68
2022/05/24 03:54:37;;;;;;;9.52;5.07;;;16.80;90.20;;;;;;4992392;28;20042;-68
2022/05/24 03:59:49;;;;;;;9.48;5.00;;;16.80;90.20;;;;;;4994036;28;20058;-68
2022/05/24 04:02:18;;;;;;;11.80;4.80;;;16.90;90.10;;;;;;4993689;28;20026;-68
2022/05/24 04:04:43;;;;;;;9.77;5.57;;;16.80;90.20;;;;;;4994895;28;20089;-68
2022/05/24 04:07:09;;;;;;;8.20;4.60;;;16.80;90.20;;;;;;4988244;28;20041;-68
2022/05/24 04:09:35;;;;;;;7.97;4.88;;;16.80;90.10;;;;;;4993618;28;20050;-68
2022/05/24 04:12:02;;;;;;;11.18;5.57;;;16.80;90.30;;;;;;4994656;28;20065;-68
2022/05/24 04:14:32;;;;;;;9.23;3.13;;;16.80;90.40;;;;;;4993973;28;20125;-68
2022/05/24 04:16:58;;;;;;;10.93;5.22;;;16.70;90.40;;;;;;4993556;28;20026;-68
2022/05/24 04:19:24;;;;;;;12.55;6.95;;;16.70;90.50;;;;;;4994246;28;20038;-68
2022/05/24 04:21:50;;;;;;;14.35;5.50;;;16.70;90.70;;;;;;4994531;28;20027;-69
2022/05/24 04:24:17;;;;;;;11.27;5.38;;;16.70;90.80;;;;;;4993318;28;20041;-68
2022/05/24 04:26:45;;;;;;;6.38;3.40;;;16.70;90.80;;;;;;4993182;28;20034;-68
2022/05/24 04:29:14;;;;;;;9.98;5.00;;;16.70;90.80;;;;;;4995955;28;20038;-68
2022/05/24 04:31:41;;;;;;;13.70;7.55;;;16.70;90.90;;;;;;4994719;28;20034;-69
2022/05/24 04:34:09;;;;;;;5.47;3.45;;;16.60;91.10;;;;;;4987719;28;20050;-68
2022/05/24 04:36:34;;;;;;;15.15;7.43;;;16.70;91.30;;;;;;4992013;28;20064;-68
2022/05/24 04:39:00;;;;;;;8.77;5.22;;;16.60;91.60;;;;;;4994621;28;20038;-68
2022/05/24 04:44:15;;;;;;;9.95;5.88;;;16.50;91.70;;;;;;4980293;28;20074;-67
2022/05/24 04:47:08;;;;;;;10.00;4.50;;;16.50;91.80;;;;;;4993602;28;20072;-70
2022/05/24 04:49:39;;;;;;;7.47;4.20;;;16.50;91.80;;;;;;4994779;28;20034;-71
2022/05/24 04:52:11;;;;;;;10.98;6.55;;;16.50;91.80;;;;;;4992620;28;20034;-68
2022/05/24 04:54:38;;;;;;;11.15;5.78;;;16.50;91.90;;;;;;4990075;28;20046;-68
2022/05/24 04:57:05;;;;;;;7.05;4.13;;;16.50;91.90;;;;;;4992380;28;20030;-69
2022/05/24 04:59:34;;;;;;;9.65;5.00;;;16.60;91.80;;;;;;4992900;28;20057;-69
2022/05/24 05:02:00;;;;;;;6.05;4.20;;;16.50;92.00;;;;;;4993370;28;20026;-67
2022/05/24 05:04:26;;;;;;;7.40;3.63;;;16.50;92.10;;;;;;4990926;28;20030;-69
2022/05/24 05:06:53;;;;;;;7.25;4.07;;;16.50;92.20;;;;;;4991640;28;20382;-68
2022/05/24 05:09:19;;;;;;;5.88;3.47;;;16.50;92.20;;;;;;4990599;28;20118;-68
2022/05/24 05:11:45;;;;;;;5.22;2.65;;;16.50;92.10;;;;;;4989966;28;20141;-68
2022/05/24 05:14:15;;;;;;;5.75;3.60;;;16.50;92.20;;;;;;4989981;28;20034;-68
2022/05/24 05:16:41;;;;;;;5.05;2.40;;;16.50;92.30;;;;;;4985856;28;20065;-68
2022/05/24 05:19:09;;;;;;;8.30;4.05;;;16.60;92.50;;;;;;4990281;28;20049;-67
2022/05/24 05:21:37;;;;;;;3.70;2.47;;;16.50;92.40;;;;;;4991846;28;20034;-68
2022/05/24 05:24:05;;;;;;;7.68;3.38;;;16.50;92.50;;;;;;4991108;28;20034;-69
2022/05/24 05:26:31;;;;;;;4.90;2.03;;;16.50;92.60;;;;;;4991189;28;20022;-70
2022/05/24 05:28:57;;;;;;;8.93;3.38;;;16.50;92.70;;;;;;4992341;28;20165;-69
2022/05/24 05:31:26;;;;;;;6.50;3.47;;;16.50;92.90;;;;;;4992677;28;20397;-70
2022/05/24 05:33:53;;;;;;;3.20;1.75;;;16.40;93.00;;;;;;4991239;28;20069;-69
2022/05/24 05:36:22;;;;;;;7.35;3.50;;;16.40;93.10;;;;;;4993217;28;20034;-69
2022/05/24 05:38:48;;;;;;;10.13;4.70;;;16.40;93.10;;;;;;4989301;28;20147;-68
2022/05/24 05:41:17;;;;;;;6.57;2.72;;;16.40;93.20;;;;;;4989191;28;20054;-68
2022/05/24 05:43:44;;;;;;;2.88;1.73;;;16.40;93.20;;;;;;4989908;28;20081;-69
2022/05/24 05:46:11;;;;;;;5.72;2.67;;;16.40;93.20;;;;;;4993080;28;20599;-68
2022/05/24 05:48:38;;;;;;;6.00;3.58;;;16.40;93.20;;;;;;4992812;28;20081;-68
2022/05/24 05:51:05;;;;;;;9.43;4.90;;;16.40;93.10;;;;;;4996766;28;20026;-68
2022/05/24 05:53:31;;;;;;;6.32;3.55;;;16.50;93.10;;;;;;4997108;28;20089;-67
2022/05/24 05:55:57;;;;;;;6.97;4.30;;;16.50;93.00;;;;;;4996042;28;20030;-67
2022/05/24 05:58:22;;;;;;;4.65;3.28;;;16.50;93.00;;;;;;4996653;28;20026;-67
2022/05/24 06:00:49;;;;;;;10.25;4.35;;;16.60;92.90;;;;;;4996190;28;20044;-68
2022/05/24 06:03:16;;;;;;;13.95;5.95;;;16.60;93.20;;;;;;4996600;28;20038;-67
2022/05/24 06:05:47;;;;;;;5.68;2.42;;;16.60;92.90;;;;;;4994405;28;20037;-68
2022/05/24 06:08:13;;;;;;;12.43;6.20;;;16.60;92.80;;;;;;4986623;28;20030;-68
2022/05/24 06:10:39;;;;;;;10.00;5.28;;;16.70;92.80;;;;;;4996264;28;20421;-67
2022/05/24 06:13:05;;;;;;;11.55;4.75;;;16.70;92.80;;;;;;4996795;28;20122;-68
2022/05/24 06:15:33;;;;;;;11.18;5.00;;;16.70;92.70;;;;;;4995889;28;20129;-68
2022/05/24 06:17:59;;;;;;;8.40;4.10;;;16.70;92.60;;;;;;4996344;28;20077;-67
2022/05/24 06:20:28;;;;;;;10.15;5.35;;;16.80;92.70;;;;;;4996403;28;20038;-67
2022/05/24 06:22:55;;;;;;;10.43;4.55;;;16.80;92.60;;;;;;4995603;28;20483;-68
2022/05/24 06:25:29;;;;;;;9.93;5.45;;;16.80;92.60;;;;;;4995514;28;20089;-67
2022/05/24 06:27:56;;;;;;;10.23;4.70;;;16.80;92.60;;;;;;4996513;28;20074;-68
2022/05/24 06:30:23;;;;;;;11.55;3.80;;;16.90;92.50;;;;;;4995200;28;20026;-68
2022/05/24 06:32:50;;;;;;;15.45;6.38;;;16.90;92.40;;;;;;4996462;28;20141;-68
2022/05/24 06:35:17;;;;;;;11.55;5.07;;;16.90;92.40;;;;;;4996015;28;20029;-67
2022/05/24 06:37:43;;;;;;;9.52;3.05;;;16.90;92.50;;;;;;4995645;28;20041;-67
2022/05/24 06:40:13;;;;;;;9.75;5.28;;;17.00;92.40;;;;;;4995899;28;20037;-67
2022/05/24 06:42:38;;;;;;;6.82;3.58;;;16.90;92.50;;;;;;4995962;28;20068;-67
2022/05/24 06:45:05;;;;;;;7.90;3.85;;;16.90;92.40;;;;;;4994885;28;20065;-68
2022/05/24 06:47:31;;;;;;;11.93;6.35;;;16.90;92.40;;;;;;4995606;28;20047;-67
2022/05/24 06:49:56;;;;;;;8.27;3.65;;;16.90;92.50;;;;;;4995436;28;20080;-68
2022/05/24 06:52:23;;;;;;;9.15;4.75;;;16.90;92.40;;;;;;4995580;28;20394;-67
2022/05/24 06:54:49;;;;;;;7.35;2.58;;;16.90;92.50;;;;;;4995757;28;20488;-67
2022/05/24 06:57:15;;;;;;;5.97;2.65;;;16.90;92.50;;;;;;4994776;28;20069;-67
2022/05/24 07:02:31;;;;;;;5.22;3.22;;;16.90;92.60;;;;;;4995801;28;20030;-68
2022/05/24 07:05:08;;;;;;;7.70;2.95;;;16.90;92.70;;;;;;4995129;28;20034;-67
2022/05/24 07:07:36;;;;;;;4.95;2.50;;;16.90;92.80;;;;;;4993662;28;20034;-67
2022/05/24 07:10:04;;;;;;;4.97;3.38;;;16.90;92.80;;;;;;4995086;28;20525;-67
2022/05/24 07:12:30;;;;;;;1.92;1.52;;;16.80;92.90;;;;;;4994820;28;20509;-67
2022/05/24 07:14:58;;;;;;;8.00;2.90;;;16.80;92.90;;;;;;4995107;28;20050;-67
2022/05/24 07:17:25;;;;;;;10.10;3.97;;;16.80;92.90;;;;;;4995524;28;20109;-67
2022/05/24 07:19:51;;;;;;;8.52;3.30;;;16.80;93.00;;;;;;4994768;28;20096;-68
2022/05/24 07:22:17;;;;;;;2.20;1.80;;;16.80;93.20;;;;;;4995382;28;20478;-67
2022/05/24 07:24:45;;;;;;;2.88;2.00;;;16.80;92.90;;;;;;4995268;28;20042;-67
2022/05/24 07:27:12;;;;;;;8.23;2.17;;;16.80;93.00;;;;;;4994306;28;20026;-67
2022/05/24 07:29:39;;;;;;;3.03;2.20;;;16.80;93.10;;;;;;4995192;28;20053;-68
2022/05/24 07:32:08;;;;;;;5.93;1.65;;;16.80;93.10;;;;;;4994845;28;20088;-67
2022/05/24 07:34:35;;;;;;;3.75;2.03;;;16.80;93.10;;;;;;4995053;28;20057;-67
2022/05/24 07:37:03;;;;;;;4.72;2.35;;;16.80;93.20;;;;;;4994700;28;20036;-67
2022/05/24 07:39:31;;;;;;;6.95;2.83;;;16.80;93.20;;;;;;4994620;28;20049;-67
2022/05/24 07:47:16;;;;;;;5.63;2.97;;;16.80;93.40;;;;;;4994021;28;20062;-67
2022/05/24 07:49:41;;;;;;;5.55;2.33;;;16.80;93.50;;;;;;4995122;28;20064;-67
2022/05/24 07:52:07;;;;;;;5.95;2.35;;;16.80;93.50;;;;;;4994973;28;20062;-67
2022/05/24 07:54:33;;;;;;;6.20;2.60;;;16.80;93.50;;;;;;4993903;28;20521;-68
2022/05/24 07:57:00;;;;;;;8.10;2.28;;;16.80;93.60;;;;;;4995009;28;20438;-68
2022/05/24 07:59:25;;;;;;;3.92;2.85;;;16.80;93.60;;;;;;4994401;28;20125;-67
2022/05/24 08:01:51;;;;;;;3.97;2.47;;;16.80;93.60;;;;;;4993756;28;20157;-67
2022/05/24 08:04:18;;;;;;;1.98;1.65;;;16.70;93.60;;;;;;4994607;28;20104;-67
2022/05/24 08:06:44;;;;;;;3.28;2.22;;;16.70;93.50;;;;;;4983993;28;20175;-67
2022/05/24 08:09:09;;;;;;;2.20;1.70;;;16.80;93.50;;;;;;4992506;28;20413;-67
2022/05/24 08:11:35;;;;;;;3.30;1.75;;;16.80;93.50;;;;;;4994251;28;20482;-67
2022/05/24 08:14:02;;;;;;;8.35;2.08;;;16.80;93.50;;;;;;4994383;28;20034;-68
2022/05/24 08:16:32;;;;;;;2.72;1.98;;;16.80;93.50;;;;;;4993504;28;20118;-68
2022/05/24 08:19:02;;;;;;;2.78;1.70;;;16.80;93.50;;;;;;4994633;28;20125;-67
2022/05/24 08:21:29;;;;;;;5.57;2.60;;;16.80;93.50;;;;;;4993651;28;20113;-67
2022/05/24 08:23:55;;;;;;;2.28;1.55;;;16.80;93.40;;;;;;4993930;28;20093;-68
2022/05/24 08:26:21;;;;;;;1.77;1.35;;;16.80;93.40;;;;;;4994090;28;20049;-68
2022/05/24 08:28:47;;;;;;;2.92;1.83;;;16.80;93.40;;;;;;4993605;28;20489;-67
2022/05/24 08:31:15;;;;;;;3.28;1.67;;;16.80;93.40;;;;;;4993781;28;20414;-68
2022/05/24 08:33:42;;;;;;;5.30;1.30;;;16.80;93.40;;;;;;4993442;28;20085;-72
2022/05/24 08:36:09;;;;;;;1.25;1.10;;;16.90;93.50;;;;;;4992526;28;20033;-72
2022/05/24 08:38:35;;;;;;;2.20;1.48;;;16.90;93.50;;;;;;4993191;28;20042;-71
2022/05/24 08:41:04;;;;;;;4.55;1.75;;;16.80;93.40;;;;;;4992876;28;20081;-71
2022/05/24 08:43:50;;;;;;;2.22;1.02;;;16.90;93.40;;;;;;4992246;28;20030;-70
2022/05/24 08:49:13;;;;;;;1.48;1.38;;;16.80;93.40;;;;;;4992091;28;20052;-69
2022/05/24 08:51:56;;;;;;;5.00;2.60;;;16.90;93.40;;;;;;4992640;28;20018;-69
2022/05/24 08:54:38;;;;;;;4.85;1.55;;;16.90;93.40;;;;;;4993187;28;20093;-69
2022/05/24 08:57:08;;;;;;;3.00;1.20;;;16.80;93.40;;;;;;4992682;28;20091;-69
2022/05/24 08:59:39;;;;;;;2.70;1.67;;;16.90;93.40;;;;;;4993551;28;20108;-69
2022/05/24 09:02:06;;;;;;;2.75;1.80;;;16.90;93.40;;;;;;4992429;28;20072;-69
2022/05/24 09:04:33;;;;;;;1.48;1.33;;;16.90;93.50;;;;;;4991520;28;20088;-69
2022/05/24 09:07:12;;;;;;;3.63;1.75;;;16.90;93.50;;;;;;4992487;28;20069;-69
2022/05/24 09:09:44;;;;;;;3.80;2.15;;;16.90;93.40;;;;;;4992409;28;20074;-69
2022/05/24 09:12:10;;;;;;;2.17;1.40;;;16.80;93.40;;;;;;4992502;28;20030;-69
2022/05/24 09:15:13;;;;;;;3.38;1.60;;;16.90;93.40;;;;;;4992081;28;20061;-69
2022/05/24 09:18:02;;;;;;;3.15;1.63;;;16.90;93.30;;;;;;4991718;28;20105;-69
2022/05/24 09:20:29;;;;;;;3.17;1.98;;;16.90;93.30;;;;;;4991424;28;20397;-69
2022/05/24 09:23:00;;;;;;;2.03;1.48;;;16.90;93.20;;;;;;4974641;28;20027;-69
2022/05/24 09:25:26;;;;;;;4.35;3.28;;;16.90;93.20;;;;;;4991294;28;20041;-70
2022/05/24 09:27:54;;;;;;;4.90;2.80;;;17.00;93.20;;;;;;4993387;28;20035;-67
2022/05/24 09:30:25;;;;;;;9.68;3.28;;;17.00;93.20;;;;;;4993083;28;20038;-68
2022/05/24 09:32:51;;;;;;;4.20;2.55;;;17.00;93.30;;;;;;4986632;28;20553;-67
2022/05/24 09:35:25;;;;;;;3.83;1.88;;;17.00;93.40;;;;;;4992295;28;20121;-67
2022/05/24 09:38:02;;;;;;;4.78;2.67;;;17.00;93.40;;;;;;4991467;28;20042;-67
2022/05/24 09:40:28;;;;;;;4.78;1.95;;;16.90;93.40;;;;;;4987264;28;20489;-68
2022/05/24 09:42:53;;;;;;;9.43;3.60;;;16.80;93.40;;;;;;4991006;28;20018;-67
2022/05/24 09:45:23;;;;;;;7.60;3.17;;;16.80;93.50;;;;;;4993199;28;20486;-67
2022/05/24 09:47:52;;;;;;;6.72;2.00;;;16.80;93.60;;;;;;4990774;28;20501;-67
2022/05/24 09:50:25;;;;;;;1.67;1.20;;;16.70;93.50;;;;;;4992065;28;20426;-67
2022/05/24 09:53:05;;;;;;;0.77;0.77;;;16.60;93.40;;;;;;4992098;28;20034;-69
2022/05/24 09:55:38;;;;;;;1.13;1.02;;;16.50;93.40;;;;;;4992436;28;20177;-68
2022/05/24 09:58:30;;;;;;;1.23;0.80;;;16.50;93.40;;;;;;4992829;28;20030;-67
2022/05/24 10:01:13;;;;;;;1.27;1.05;;;16.40;93.50;;;;;;4992240;28;20117;-67
2022/05/24 10:03:43;;;;;;;1.77;0.98;;;16.30;93.40;;;;;;4992715;28;20036;-67
2022/05/24 10:06:21;;;;;;;1.13;0.73;;;16.40;93.60;;;;;;4992586;28;20062;-67
2022/05/24 10:08:55;;;;;;;1.77;0.80;;;16.40;93.70;;;;;;4990536;28;20371;-66
2022/05/24 10:11:51;;;;;;;2.25;1.38;;;16.40;93.70;;;;;;4991280;28;20087;-67
2022/05/24 10:14:38;;;;;;;2.85;1.20;;;16.40;93.80;;;;;;4990718;28;20042;-67
2022/05/24 10:17:49;;;;;;;1.15;1.00;;;16.30;93.90;;;;;;4991799;28;20031;-68
2022/05/24 10:20:17;;;;;;;0.95;0.88;;;16.40;94.00;;;;;;4983767;28;20544;-70
2022/05/24 10:23:03;;;;;;;1.85;1.25;;;16.40;94.10;;;;;;4991019;28;20491;-71
2022/05/24 10:25:31;;;;;;;1.02;0.82;;;16.40;94.10;;;;;;4990135;28;20038;-68
2022/05/24 10:28:12;;;;;;;1.55;1.25;;;16.40;94.10;;;;;;4991180;28;20480;-69
2022/05/24 10:30:37;;;;;;;2.35;0.75;;;16.50;94.10;;;;;;4993282;28;20451;-68
2022/05/24 10:39:38;;;;;;;2.33;1.40;;;16.60;94.00;;;;;;4996417;28;20038;-67
2022/05/24 10:42:03;;;;;;;8.23;1.20;;;16.70;93.90;;;;;;4995255;28;20074;-68
2022/05/24 10:44:44;;;;;;;0.73;0.73;;;16.70;93.80;;;;;;4995962;28;20482;-67
2022/05/24 10:47:24;;;;;;;1.98;0.95;;;16.70;94.10;;;;;;4995517;28;20483;-68
2022/05/24 10:49:56;;;;;;;0.65;0.65;;;16.70;93.80;;;;;;4990277;28;20030;-67
2022/05/24 10:52:46;;;;;;;2.83;0.82;;;16.80;93.80;;;;;;4989752;28;20517;-67
2022/05/24 10:55:32;;;;;;;2.53;1.15;;;16.80;93.80;;;;;;4985459;28;20038;-67
2022/05/24 10:58:11;;;;;;;3.08;1.27;;;16.80;93.70;;;;;;4994918;28;20435;-66
2022/05/24 11:00:51;;;;;;;5.60;1.05;;;16.80;93.50;;;;;;4995610;28;20462;-67
2022/05/24 11:03:30;;;;;;;4.55;1.55;;;16.80;93.40;;;;;;4993233;28;20029;-67
2022/05/24 11:06:05;;;;;;;1.88;1.30;;;16.80;93.40;;;;;;4993944;28;20508;-67
2022/05/24 11:08:49;;;;;;;1.85;0.90;;;16.80;93.50;;;;;;4989227;28;20058;-67
2022/05/24 11:12:03;;;;;;;3.25;1.40;;;16.80;93.50;;;;;;4992924;28;20084;-68
2022/05/24 11:14:51;;;;;;;1.55;1.15;;;16.70;93.50;;;;;;4905299;29;20118;-68
2022/05/24 11:17:20;;;;;;;1.92;0.90;;;16.70;93.50;;;;;;4908144;29;20498;-68
2022/05/24 11:19:51;;;;;;;0.95;0.90;;;16.70;93.60;;;;;;4968759;28;20042;-67
2022/05/24 11:22:41;;;;;;;1.35;1.02;;;16.70;93.70;;;;;;4992803;28;20701;-67
2022/05/24 11:25:21;;;;;;;1.50;1.27;;;16.70;93.80;;;;;;4992414;28;20054;-67
2022/05/24 11:27:51;;;;;;;0.68;0.68;;;16.80;93.80;;;;;;4995609;28;20062;-68
2022/05/24 11:30:19;;;;;;;2.15;1.05;;;16.80;93.70;;;;;;4994659;28;20035;-68
2022/05/24 11:32:52;;;;;;;1.85;1.50;;;16.80;93.70;;;;;;4994751;28;20036;-70
2022/05/24 11:35:18;;;;;;;1.35;1.13;;;16.80;93.70;;;;;;4995189;28;20030;-69
2022/05/24 11:37:47;;;;;;;1.73;1.20;;;16.90;93.70;;;;;;4994074;28;20113;-68
2022/05/24 11:40:37;;;;;;;1.42;1.27;;;16.90;93.50;;;;;;4993656;28;20069;-69
2022/05/24 11:43:03;;;;;;;4.65;1.10;;;17.00;93.40;;;;;;4993239;28;20034;-69
2022/05/24 11:45:29;;;;;;;3.22;1.20;;;17.00;93.20;;;;;;4993568;28;20058;-69
2022/05/24 11:47:56;;;;;;;4.85;1.48;;;17.00;93.30;;;;;;4993884;28;20065;-68
2022/05/24 11:50:31;;;;;;;2.92;1.33;;;16.90;93.20;;;;;;4993766;28;20489;-68
2022/05/24 11:53:21;;;;;;;3.08;1.10;;;16.80;93.20;;;;;;4992673;28;20492;-69
2022/05/24 11:55:53;;;;;;;1.33;0.90;;;16.70;93.40;;;;;;4994098;28;20437;-68
2022/05/24 11:58:22;;;;;;;1.10;1.00;;;16.70;93.60;;;;;;4990806;28;20030;-69
2022/05/24 12:01:04;;;;;;;0.85;0.70;;;16.70;93.70;;;;;;4992986;28;20034;-68
2022/05/24 12:09:12;;;;;;;1.23;1.13;;;16.80;94.30;;;;;;4993141;28;20105;-71
2022/05/24 12:11:38;;;;;;;2.53;1.38;;;16.90;94.50;;;;;;4993996;28;20115;-70
2022/05/24 12:14:34;;;;;;;1.15;0.85;;;16.80;94.50;;;;;;4991986;28;20065;-68
2022/05/24 12:17:00;;;;;;;1.40;1.30;;;16.90;94.60;;;;;;4993370;28;20062;-68
2022/05/24 12:19:35;;;;;;;1.25;1.15;;;16.90;94.50;;;;;;4991975;28;20457;-68
2022/05/24 12:22:07;;;;;;;4.00;1.67;;;16.90;94.40;;;;;;4991536;28;20034;-68
2022/05/24 12:24:45;;;;;;;5.22;1.70;;;16.90;94.40;;;;;;4993183;28;20030;-68
2022/05/24 12:27:22;;;;;;;0.80;0.80;;;16.90;94.30;;;;;;4993589;28;20026;-68
2022/05/24 12:30:16;;;;;;;1.55;1.10;;;16.80;94.00;;;;;;4993475;28;20052;-68
2022/05/24 12:32:41;;;;;;;0.85;0.80;;;16.70;93.90;;;;;;4994085;28;20033;-68
2022/05/24 12:35:11;;;;;;;5.13;1.40;;;16.70;93.90;;;;;;4993299;28;20042;-68
2022/05/24 12:38:00;;;;;;;3.55;1.35;;;16.70;94.00;;;;;;4993934;28;20026;-67
2022/05/24 12:40:32;;;;;;;1.85;1.00;;;16.70;94.10;;;;;;4993893;28;20070;-67
2022/05/24 12:43:07;;;;;;;0.85;0.73;;;16.80;94.20;;;;;;4993088;28;20026;-68
2022/05/24 12:45:43;;;;;;;4.65;1.70;;;16.80;94.40;;;;;;4993989;28;20050;-67
2022/05/24 12:48:17;;;;;;;1.08;1.08;;;16.80;94.30;;;;;;4993658;28;20521;-67
2022/05/24 12:50:44;;;;;;;1.05;0.90;;;16.80;94.20;;;;;;4992856;28;20031;-69
2022/05/24 12:53:13;;;;;;;5.28;1.70;;;16.80;94.30;;;;;;4993122;28;20116;-66
2022/05/24 12:55:56;;;;;;;1.40;0.98;;;16.80;94.20;;;;;;4992290;28;20026;-68
2022/05/24 12:58:37;;;;;;;1.60;1.07;;;16.80;93.80;;;;;;4978989;28;20120;-67
2022/05/24 13:01:30;;;;;;;0.82;0.70;;;16.90;93.50;;;;;;4992655;28;20031;-67
2022/05/24 13:04:15;;;;;;;2.05;0.90;;;16.80;93.70;;;;;;4987901;28;20393;-67
2022/05/24 13:06:53;;;;;;;1.30;1.20;;;16.80;94.00;;;;;;4985360;28;20026;-67
2022/05/24 13:09:41;;;;;;;3.55;0.75;;;17.00;94.10;;;;;;4992517;28;20030;-67
2022/05/24 13:12:10;;;;;;;1.85;1.42;;;16.90;94.10;;;;;;4992692;28;20141;-67
2022/05/24 13:14:46;;;;;;;2.10;0.90;;;17.00;94.10;;;;;;4992983;28;20038;-67
2022/05/24 13:17:15;;;;;;;1.52;1.15;;;17.00;94.10;;;;;;4992639;28;20443;-67
2022/05/24 13:20:06;;;;;;;1.70;1.35;;;16.90;94.10;;;;;;4993410;28;20181;-67
2022/05/24 13:23:14;;;;;;;1.40;1.30;;;16.90;94.20;;;;;;4992646;28;20389;-67
2022/05/24 13:26:08;;;;;;;1.05;0.77;;;17.00;94.50;;;;;;4990049;28;20046;-65
2022/05/24 13:28:44;;;;;;;;;;;17.00;94.40;;;;;;4986327;28;20065;-66
2022/05/24 13:34:30;;;;;;;2.63;1.33;;;17.20;93.90;;;;;;4988535;28;20125;-65
2022/05/24 13:36:59;;;;;;;7.18;1.15;;;17.20;93.80;;;;;;4988467;28;20505;-66
2022/05/24 13:39:24;;;;;;;3.55;1.05;;;17.10;93.60;;;;;;4987533;28;20022;-65
2022/05/24 13:42:09;;;;;;;2.55;0.88;;;17.20;93.60;;;;;;4988649;28;20045;-66
2022/05/24 13:44:39;;;;;;;0.57;0.57;;;17.20;93.50;;;;;;4989142;28;20027;-66
2022/05/24 13:47:33;;;;;;;0.65;0.60;;;17.20;93.20;;;;;;4989230;28;20088;-66
2022/05/24 13:50:14;;;;;;;4.32;1.10;;;17.20;93.20;;;;;;4988550;28;20026;-65
2022/05/24 13:52:49;;;;;;;2.15;0.98;;;17.30;93.30;;;;;;4988830;28;20502;-66